sensor_id;sensor_type;location;lat;lon;timestamp;P1;durP1;ratioP1;P2;durP2;ratioP2
76749;SDS011;66447;35.844;14.468;2023-06-14T00:02:08;34.35;;;24.08;;
76749;SDS011;66447;35.844;14.468;2023-06-14T00:17:09;33.67;;;21.45;;
76749;SDS011;66447;35.844;14.468;2023-06-14T00:32:10;30.00;;;18.30;;
76749;SDS011;66447;35.844;14.468;2023-06-14T00:47:11;19.92;;;14.27;;
76749;SDS011;66447;35.844;14.468;2023-06-14T01:02:12;19.43;;;13.60;;
76749;SDS011;66447;35.844;14.468;2023-06-14T01:17:15;31.45;;;18.48;;
76749;SDS011;66447;35.844;14.468;2023-06-14T01:32:17;17.67;;;12.02;;
76749;SDS011;66447;35.844;14.468;2023-06-14T01:47:18;16.38;;;11.50;;
76749;SDS011;66447;35.844;14.468;2023-06-14T02:02:19;21.30;;;14.73;;
76749;SDS011;66447;35.844;14.468;2023-06-14T02:17:20;32.60;;;19.10;;
76749;SDS011;66447;35.844;14.468;2023-06-14T02:32:21;33.93;;;23.13;;
76749;SDS011;66447;35.844;14.468;2023-06-14T02:47:23;33.80;;;24.42;;
76749;SDS011;66447;35.844;14.468;2023-06-14T03:02:24;38.30;;;27.90;;
76749;SDS011;66447;35.844;14.468;2023-06-14T03:17:25;52.83;;;37.65;;
76749;SDS011;66447;35.844;14.468;2023-06-14T03:32:29;50.38;;;35.95;;
76749;SDS011;66447;35.844;14.468;2023-06-14T03:47:33;48.53;;;32.95;;
76749;SDS011;66447;35.844;14.468;2023-06-14T04:02:35;42.67;;;28.20;;
76749;SDS011;66447;35.844;14.468;2023-06-14T04:17:36;34.60;;;23.40;;
76749;SDS011;66447;35.844;14.468;2023-06-14T04:32:38;29.55;;;21.35;;
76749;SDS011;66447;35.844;14.468;2023-06-14T04:47:39;28.33;;;16.77;;
76749;SDS011;66447;35.844;14.468;2023-06-14T05:02:40;28.00;;;15.37;;
76749;SDS011;66447;35.844;14.468;2023-06-14T05:17:41;18.00;;;9.85;;
76749;SDS011;66447;35.844;14.468;2023-06-14T05:32:42;14.90;;;7.70;;
76749;SDS011;66447;35.844;14.468;2023-06-14T05:47:43;15.37;;;8.47;;
76749;SDS011;66447;35.844;14.468;2023-06-14T06:02:44;19.37;;;10.73;;
76749;SDS011;66447;35.844;14.468;2023-06-14T06:17:47;18.03;;;10.53;;
76749;SDS011;66447;35.844;14.468;2023-06-14T06:32:48;24.75;;;9.90;;
76749;SDS011;66447;35.844;14.468;2023-06-14T06:47:49;21.57;;;10.03;;
76749;SDS011;66447;35.844;14.468;2023-06-14T07:02:50;20.93;;;10.50;;
76749;SDS011;66447;35.844;14.468;2023-06-14T07:17:52;19.30;;;10.93;;
76749;SDS011;66447;35.844;14.468;2023-06-14T07:32:53;14.40;;;7.95;;
76749;SDS011;66447;35.844;14.468;2023-06-14T07:47:54;16.40;;;7.43;;
76749;SDS011;66447;35.844;14.468;2023-06-14T08:02:55;11.80;;;6.63;;
76749;SDS011;66447;35.844;14.468;2023-06-14T08:17:59;14.33;;;5.47;;
76749;SDS011;66447;35.844;14.468;2023-06-14T08:33:01;9.33;;;4.90;;
76749;SDS011;66447;35.844;14.468;2023-06-14T08:48:02;9.40;;;4.50;;
76749;SDS011;66447;35.844;14.468;2023-06-14T09:03:03;15.53;;;5.20;;
76749;SDS011;66447;35.844;14.468;2023-06-14T09:18:05;15.53;;;4.43;;
76749;SDS011;66447;35.844;14.468;2023-06-14T09:33:07;7.43;;;2.90;;
76749;SDS011;66447;35.844;14.468;2023-06-14T09:48:08;6.57;;;3.07;;
76749;SDS011;66447;35.844;14.468;2023-06-14T10:03:13;7.07;;;3.60;;
76749;SDS011;66447;35.844;14.468;2023-06-14T10:34:08;8.03;;;3.87;;
76749;SDS011;66447;35.844;14.468;2023-06-14T10:49:10;6.57;;;3.00;;
76749;SDS011;66447;35.844;14.468;2023-06-14T11:04:12;8.63;;;3.10;;
76749;SDS011;66447;35.844;14.468;2023-06-14T11:19:13;9.43;;;3.50;;
76749;SDS011;66447;35.844;14.468;2023-06-14T11:34:17;9.20;;;3.03;;
76749;SDS011;66447;35.844;14.468;2023-06-14T11:49:18;12.00;;;3.40;;
76749;SDS011;66447;35.844;14.468;2023-06-14T12:04:23;7.73;;;3.07;;
76749;SDS011;66447;35.844;14.468;2023-06-14T12:19:25;10.70;;;3.50;;
76749;SDS011;66447;35.844;14.468;2023-06-14T12:34:26;9.67;;;2.80;;
76749;SDS011;66447;35.844;14.468;2023-06-14T12:49:27;8.77;;;3.77;;
76749;SDS011;66447;35.844;14.468;2023-06-14T13:04:29;11.53;;;4.13;;
76749;SDS011;66447;35.844;14.468;2023-06-14T13:19:29;7.65;;;3.03;;
76749;SDS011;66447;35.844;14.468;2023-06-14T13:34:30;6.60;;;3.03;;
76749;SDS011;66447;35.844;14.468;2023-06-14T13:49:31;6.72;;;2.58;;
76749;SDS011;66447;35.844;14.468;2023-06-14T14:04:35;6.03;;;2.73;;
76749;SDS011;66447;35.844;14.468;2023-06-14T14:19:36;4.87;;;2.03;;
76749;SDS011;66447;35.844;14.468;2023-06-14T14:34:36;7.97;;;3.35;;
76749;SDS011;66447;35.844;14.468;2023-06-14T14:49:37;7.68;;;4.00;;
76749;SDS011;66447;35.844;14.468;2023-06-14T15:04:38;9.13;;;4.00;;
76749;SDS011;66447;35.844;14.468;2023-06-14T15:19:39;10.23;;;3.70;;
76749;SDS011;66447;35.844;14.468;2023-06-14T15:34:40;5.47;;;3.13;;
76749;SDS011;66447;35.844;14.468;2023-06-14T15:49:41;7.37;;;3.23;;
76749;SDS011;66447;35.844;14.468;2023-06-14T16:04:42;8.05;;;3.90;;
76749;SDS011;66447;35.844;14.468;2023-06-14T16:19:43;9.77;;;4.20;;
76749;SDS011;66447;35.844;14.468;2023-06-14T16:34:44;10.73;;;4.87;;
76749;SDS011;66447;35.844;14.468;2023-06-14T16:49:45;9.50;;;4.30;;
76749;SDS011;66447;35.844;14.468;2023-06-14T17:04:47;8.07;;;3.30;;
76749;SDS011;66447;35.844;14.468;2023-06-14T17:19:48;12.87;;;4.37;;
76749;SDS011;66447;35.844;14.468;2023-06-14T17:34:49;9.40;;;4.75;;
76749;SDS011;66447;35.844;14.468;2023-06-14T17:49:50;12.18;;;5.22;;
76749;SDS011;66447;35.844;14.468;2023-06-14T18:04:53;12.80;;;6.85;;
76749;SDS011;66447;35.844;14.468;2023-06-14T18:19:54;11.27;;;5.80;;
76749;SDS011;66447;35.844;14.468;2023-06-14T18:34:55;10.27;;;5.67;;
76749;SDS011;66447;35.844;14.468;2023-06-14T18:49:56;13.88;;;5.85;;
76749;SDS011;66447;35.844;14.468;2023-06-14T19:04:58;13.23;;;5.68;;
76749;SDS011;66447;35.844;14.468;2023-06-14T19:19:59;12.20;;;5.43;;
76749;SDS011;66447;35.844;14.468;2023-06-14T19:35:00;10.50;;;5.85;;
76749;SDS011;66447;35.844;14.468;2023-06-14T19:50:01;9.77;;;6.18;;
76749;SDS011;66447;35.844;14.468;2023-06-14T20:05:02;16.67;;;8.38;;
76749;SDS011;66447;35.844;14.468;2023-06-14T20:20:04;19.85;;;7.20;;
76749;SDS011;66447;35.844;14.468;2023-06-14T20:35:06;15.18;;;7.30;;
76749;SDS011;66447;35.844;14.468;2023-06-14T20:50:07;15.20;;;7.45;;
76749;SDS011;66447;35.844;14.468;2023-06-14T21:05:11;19.98;;;8.25;;
76749;SDS011;66447;35.844;14.468;2023-06-14T21:20:12;15.93;;;7.47;;
76749;SDS011;66447;35.844;14.468;2023-06-14T21:35:13;18.00;;;8.53;;
76749;SDS011;66447;35.844;14.468;2023-06-14T21:50:17;14.80;;;8.93;;
76749;SDS011;66447;35.844;14.468;2023-06-14T22:05:17;15.05;;;8.18;;
76749;SDS011;66447;35.844;14.468;2023-06-14T22:20:18;18.67;;;8.50;;
76749;SDS011;66447;35.844;14.468;2023-06-14T22:35:19;19.10;;;8.60;;
76749;SDS011;66447;35.844;14.468;2023-06-14T22:50:20;15.67;;;8.03;;
76749;SDS011;66447;35.844;14.468;2023-06-14T23:05:23;15.77;;;8.05;;
76749;SDS011;66447;35.844;14.468;2023-06-14T23:20:24;19.45;;;10.00;;
76749;SDS011;66447;35.844;14.468;2023-06-14T23:35:25;17.67;;;9.57;;
76749;SDS011;66447;35.844;14.468;2023-06-14T23:50:26;14.93;;;9.88;;
